sensor_id;sensor_type;location;lat;lon;timestamp;P1;durP1;ratioP1;P2;durP2;ratioP2
43803;SDS011;29430;52.924;-2.388;2024-03-07T00:01:13;35.45;;;18.13;;
43803;SDS011;29430;52.924;-2.388;2024-03-07T00:06:04;31.17;;;17.20;;
43803;SDS011;29430;52.924;-2.388;2024-03-07T00:10:56;37.67;;;19.25;;
43803;SDS011;29430;52.924;-2.388;2024-03-07T00:15:48;41.10;;;19.52;;
43803;SDS011;29430;52.924;-2.388;2024-03-07T00:20:39;39.63;;;20.45;;
43803;SDS011;29430;52.924;-2.388;2024-03-07T00:25:31;42.95;;;21.00;;
43803;SDS011;29430;52.924;-2.388;2024-03-07T00:30:23;44.72;;;21.58;;
43803;SDS011;29430;52.924;-2.388;2024-03-07T00:35:15;40.03;;;21.52;;
43803;SDS011;29430;52.924;-2.388;2024-03-07T00:40:07;40.20;;;20.45;;
43803;SDS011;29430;52.924;-2.388;2024-03-07T00:44:59;36.05;;;20.02;;
43803;SDS011;29430;52.924;-2.388;2024-03-07T00:49:51;40.58;;;21.45;;
43803;SDS011;29430;52.924;-2.388;2024-03-07T00:54:43;43.13;;;21.83;;
43803;SDS011;29430;52.924;-2.388;2024-03-07T00:59:34;42.10;;;21.00;;
43803;SDS011;29430;52.924;-2.388;2024-03-07T01:04:26;41.65;;;20.55;;
43803;SDS011;29430;52.924;-2.388;2024-03-07T01:09:22;42.03;;;21.65;;
43803;SDS011;29430;52.924;-2.388;2024-03-07T01:14:14;38.20;;;20.88;;
43803;SDS011;29430;52.924;-2.388;2024-03-07T01:19:06;40.85;;;20.58;;
43803;SDS011;29430;52.924;-2.388;2024-03-07T01:24:00;42.15;;;21.13;;
43803;SDS011;29430;52.924;-2.388;2024-03-07T01:28:53;48.10;;;22.20;;
43803;SDS011;29430;52.924;-2.388;2024-03-07T01:33:46;47.25;;;22.40;;
43803;SDS011;29430;52.924;-2.388;2024-03-07T01:38:37;41.88;;;21.60;;
43803;SDS011;29430;52.924;-2.388;2024-03-07T01:43:29;39.10;;;20.42;;
43803;SDS011;29430;52.924;-2.388;2024-03-07T01:48:25;46.03;;;23.80;;
43803;SDS011;29430;52.924;-2.388;2024-03-07T01:53:18;43.08;;;20.70;;
43803;SDS011;29430;52.924;-2.388;2024-03-07T01:58:10;46.08;;;24.05;;
43803;SDS011;29430;52.924;-2.388;2024-03-07T02:03:09;37.90;;;20.20;;
43803;SDS011;29430;52.924;-2.388;2024-03-07T02:08:01;43.15;;;22.65;;
43803;SDS011;29430;52.924;-2.388;2024-03-07T02:12:53;50.25;;;24.02;;
43803;SDS011;29430;52.924;-2.388;2024-03-07T02:17:45;49.65;;;22.90;;
43803;SDS011;29430;52.924;-2.388;2024-03-07T02:22:37;40.63;;;21.88;;
43803;SDS011;29430;52.924;-2.388;2024-03-07T02:27:29;42.42;;;21.73;;
43803;SDS011;29430;52.924;-2.388;2024-03-07T02:32:20;46.15;;;22.27;;
43803;SDS011;29430;52.924;-2.388;2024-03-07T02:37:12;44.25;;;21.70;;
43803;SDS011;29430;52.924;-2.388;2024-03-07T02:42:05;43.47;;;21.83;;
43803;SDS011;29430;52.924;-2.388;2024-03-07T02:46:57;44.38;;;23.17;;
43803;SDS011;29430;52.924;-2.388;2024-03-07T02:51:49;43.70;;;21.42;;
43803;SDS011;29430;52.924;-2.388;2024-03-07T02:56:41;44.78;;;23.38;;
43803;SDS011;29430;52.924;-2.388;2024-03-07T03:01:33;51.33;;;25.20;;
43803;SDS011;29430;52.924;-2.388;2024-03-07T03:06:25;44.58;;;22.80;;
43803;SDS011;29430;52.924;-2.388;2024-03-07T03:11:16;49.70;;;24.23;;
43803;SDS011;29430;52.924;-2.388;2024-03-07T03:16:08;47.72;;;23.35;;
43803;SDS011;29430;52.924;-2.388;2024-03-07T03:21:01;50.40;;;24.25;;
43803;SDS011;29430;52.924;-2.388;2024-03-07T03:25:53;45.45;;;22.25;;
43803;SDS011;29430;52.924;-2.388;2024-03-07T03:30:46;42.60;;;21.73;;
43803;SDS011;29430;52.924;-2.388;2024-03-07T03:35:39;44.05;;;23.05;;
43803;SDS011;29430;52.924;-2.388;2024-03-07T03:40:31;51.47;;;22.63;;
43803;SDS011;29430;52.924;-2.388;2024-03-07T03:45:23;46.05;;;23.85;;
43803;SDS011;29430;52.924;-2.388;2024-03-07T03:50:17;48.28;;;22.42;;
43803;SDS011;29430;52.924;-2.388;2024-03-07T03:55:09;56.00;;;22.42;;
43803;SDS011;29430;52.924;-2.388;2024-03-07T04:00:02;46.58;;;23.77;;
43803;SDS011;29430;52.924;-2.388;2024-03-07T04:05:03;52.67;;;24.33;;
43803;SDS011;29430;52.924;-2.388;2024-03-07T04:09:55;54.88;;;22.02;;
43803;SDS011;29430;52.924;-2.388;2024-03-07T04:14:47;44.67;;;18.38;;
43803;SDS011;29430;52.924;-2.388;2024-03-07T04:19:42;45.50;;;19.35;;
43803;SDS011;29430;52.924;-2.388;2024-03-07T04:24:35;58.03;;;19.98;;
43803;SDS011;29430;52.924;-2.388;2024-03-07T04:29:27;50.22;;;21.33;;
43803;SDS011;29430;52.924;-2.388;2024-03-07T04:34:18;70.97;;;22.10;;
43803;SDS011;29430;52.924;-2.388;2024-03-07T04:39:10;63.85;;;23.15;;
43803;SDS011;29430;52.924;-2.388;2024-03-07T04:44:19;109.93;;;22.98;;
43803;SDS011;29430;52.924;-2.388;2024-03-07T04:49:15;118.57;;;24.33;;
43803;SDS011;29430;52.924;-2.388;2024-03-07T04:54:07;115.90;;;24.73;;
43803;SDS011;29430;52.924;-2.388;2024-03-07T04:58:59;103.95;;;23.27;;
43803;SDS011;29430;52.924;-2.388;2024-03-07T05:03:50;66.00;;;21.33;;
43803;SDS011;29430;52.924;-2.388;2024-03-07T05:08:44;84.32;;;21.67;;
43803;SDS011;29430;52.924;-2.388;2024-03-07T05:13:38;144.98;;;22.17;;
43803;SDS011;29430;52.924;-2.388;2024-03-07T05:18:33;135.85;;;27.65;;
43803;SDS011;29430;52.924;-2.388;2024-03-07T05:23:25;92.07;;;22.13;;
43803;SDS011;29430;52.924;-2.388;2024-03-07T05:28:16;52.97;;;18.75;;
43803;SDS011;29430;52.924;-2.388;2024-03-07T05:33:08;69.00;;;19.25;;
43803;SDS011;29430;52.924;-2.388;2024-03-07T05:38:00;108.32;;;21.17;;
43803;SDS011;29430;52.924;-2.388;2024-03-07T05:42:56;43.78;;;14.40;;
43803;SDS011;29430;52.924;-2.388;2024-03-07T05:47:48;44.60;;;14.65;;
43803;SDS011;29430;52.924;-2.388;2024-03-07T05:52:40;95.10;;;15.90;;
43803;SDS011;29430;52.924;-2.388;2024-03-07T05:57:32;55.42;;;13.65;;
43803;SDS011;29430;52.924;-2.388;2024-03-07T06:02:24;127.22;;;17.00;;
43803;SDS011;29430;52.924;-2.388;2024-03-07T06:07:15;40.95;;;12.32;;
43803;SDS011;29430;52.924;-2.388;2024-03-07T06:12:07;44.47;;;12.77;;
43803;SDS011;29430;52.924;-2.388;2024-03-07T06:17:13;77.78;;;14.95;;
43803;SDS011;29430;52.924;-2.388;2024-03-07T06:22:04;57.22;;;14.57;;
43803;SDS011;29430;52.924;-2.388;2024-03-07T06:27:00;87.75;;;15.40;;
43803;SDS011;29430;52.924;-2.388;2024-03-07T06:31:55;84.38;;;15.00;;
43803;SDS011;29430;52.924;-2.388;2024-03-07T06:36:46;47.45;;;13.93;;
43803;SDS011;29430;52.924;-2.388;2024-03-07T06:41:38;94.05;;;15.48;;
43803;SDS011;29430;52.924;-2.388;2024-03-07T06:46:31;104.05;;;16.85;;
43803;SDS011;29430;52.924;-2.388;2024-03-07T06:51:23;50.72;;;15.73;;
43803;SDS011;29430;52.924;-2.388;2024-03-07T06:56:16;44.55;;;14.98;;
43803;SDS011;29430;52.924;-2.388;2024-03-07T07:01:09;37.58;;;15.05;;
43803;SDS011;29430;52.924;-2.388;2024-03-07T07:06:03;47.88;;;17.33;;
43803;SDS011;29430;52.924;-2.388;2024-03-07T07:10:58;46.58;;;18.00;;
43803;SDS011;29430;52.924;-2.388;2024-03-07T07:15:50;49.35;;;19.02;;
43803;SDS011;29430;52.924;-2.388;2024-03-07T07:20:42;45.30;;;18.33;;
43803;SDS011;29430;52.924;-2.388;2024-03-07T07:25:34;57.38;;;19.55;;
43803;SDS011;29430;52.924;-2.388;2024-03-07T07:30:26;60.22;;;22.05;;
43803;SDS011;29430;52.924;-2.388;2024-03-07T07:35:20;54.38;;;20.63;;
43803;SDS011;29430;52.924;-2.388;2024-03-07T07:40:13;45.78;;;17.50;;
43803;SDS011;29430;52.924;-2.388;2024-03-07T07:45:09;59.00;;;22.60;;
43803;SDS011;29430;52.924;-2.388;2024-03-07T07:50:02;71.70;;;24.90;;
43803;SDS011;29430;52.924;-2.388;2024-03-07T07:54:58;56.65;;;20.77;;
43803;SDS011;29430;52.924;-2.388;2024-03-07T07:59:49;57.88;;;20.80;;
43803;SDS011;29430;52.924;-2.388;2024-03-07T08:04:41;53.35;;;20.95;;
43803;SDS011;29430;52.924;-2.388;2024-03-07T08:09:33;56.70;;;21.38;;
43803;SDS011;29430;52.924;-2.388;2024-03-07T08:14:25;51.35;;;18.13;;
43803;SDS011;29430;52.924;-2.388;2024-03-07T08:19:20;63.78;;;21.63;;
43803;SDS011;29430;52.924;-2.388;2024-03-07T08:24:11;62.97;;;23.70;;
43803;SDS011;29430;52.924;-2.388;2024-03-07T08:29:03;66.80;;;23.67;;
43803;SDS011;29430;52.924;-2.388;2024-03-07T08:33:56;55.17;;;20.73;;
43803;SDS011;29430;52.924;-2.388;2024-03-07T08:38:48;60.90;;;22.75;;
43803;SDS011;29430;52.924;-2.388;2024-03-07T08:43:40;63.25;;;25.15;;
43803;SDS011;29430;52.924;-2.388;2024-03-07T08:48:31;64.13;;;24.25;;
43803;SDS011;29430;52.924;-2.388;2024-03-07T08:53:23;48.20;;;18.80;;
43803;SDS011;29430;52.924;-2.388;2024-03-07T08:58:15;67.07;;;27.52;;
43803;SDS011;29430;52.924;-2.388;2024-03-07T09:03:07;69.60;;;27.60;;
43803;SDS011;29430;52.924;-2.388;2024-03-07T09:08:03;54.55;;;23.05;;
43803;SDS011;29430;52.924;-2.388;2024-03-07T09:12:56;57.90;;;22.77;;
43803;SDS011;29430;52.924;-2.388;2024-03-07T09:17:48;56.60;;;24.65;;
43803;SDS011;29430;52.924;-2.388;2024-03-07T09:22:41;65.20;;;26.83;;
43803;SDS011;29430;52.924;-2.388;2024-03-07T09:27:33;66.72;;;27.65;;
43803;SDS011;29430;52.924;-2.388;2024-03-07T09:32:25;73.97;;;29.80;;
43803;SDS011;29430;52.924;-2.388;2024-03-07T09:37:19;70.45;;;29.70;;
43803;SDS011;29430;52.924;-2.388;2024-03-07T09:42:12;64.38;;;26.48;;
43803;SDS011;29430;52.924;-2.388;2024-03-07T09:47:08;68.20;;;29.13;;
43803;SDS011;29430;52.924;-2.388;2024-03-07T09:52:11;69.15;;;30.58;;
43803;SDS011;29430;52.924;-2.388;2024-03-07T09:57:05;62.25;;;29.25;;
43803;SDS011;29430;52.924;-2.388;2024-03-07T10:01:59;65.70;;;29.20;;
43803;SDS011;29430;52.924;-2.388;2024-03-07T10:06:51;64.05;;;27.25;;
43803;SDS011;29430;52.924;-2.388;2024-03-07T10:11:44;57.38;;;25.20;;
43803;SDS011;29430;52.924;-2.388;2024-03-07T10:16:39;59.83;;;26.55;;
43803;SDS011;29430;52.924;-2.388;2024-03-07T10:21:33;67.03;;;29.52;;
43803;SDS011;29430;52.924;-2.388;2024-03-07T10:26:26;64.57;;;27.33;;
43803;SDS011;29430;52.924;-2.388;2024-03-07T10:31:29;62.50;;;26.33;;
43803;SDS011;29430;52.924;-2.388;2024-03-07T10:36:21;59.75;;;24.67;;
43803;SDS011;29430;52.924;-2.388;2024-03-07T10:41:13;60.05;;;28.95;;
43803;SDS011;29430;52.924;-2.388;2024-03-07T10:46:07;64.55;;;30.02;;
43803;SDS011;29430;52.924;-2.388;2024-03-07T11:01:31;55.03;;;24.60;;
43803;SDS011;29430;52.924;-2.388;2024-03-07T11:06:26;50.97;;;25.08;;
43803;SDS011;29430;52.924;-2.388;2024-03-07T11:11:18;50.40;;;23.15;;
43803;SDS011;29430;52.924;-2.388;2024-03-07T11:16:10;53.30;;;26.38;;
43803;SDS011;29430;52.924;-2.388;2024-03-07T11:21:04;54.10;;;25.45;;
43803;SDS011;29430;52.924;-2.388;2024-03-07T11:26:03;54.10;;;26.52;;
43803;SDS011;29430;52.924;-2.388;2024-03-07T11:36:19;52.50;;;24.63;;
43803;SDS011;29430;52.924;-2.388;2024-03-07T11:46:26;42.95;;;21.35;;
43803;SDS011;29430;52.924;-2.388;2024-03-07T11:51:20;50.03;;;23.98;;
43803;SDS011;29430;52.924;-2.388;2024-03-07T11:56:16;46.47;;;23.15;;
43803;SDS011;29430;52.924;-2.388;2024-03-07T12:01:08;52.00;;;25.25;;
43803;SDS011;29430;52.924;-2.388;2024-03-07T12:06:02;53.47;;;24.20;;
43803;SDS011;29430;52.924;-2.388;2024-03-07T12:10:54;57.90;;;27.75;;
43803;SDS011;29430;52.924;-2.388;2024-03-07T12:15:49;56.50;;;27.55;;
43803;SDS011;29430;52.924;-2.388;2024-03-07T12:20:43;61.85;;;28.10;;
43803;SDS011;29430;52.924;-2.388;2024-03-07T12:25:46;61.47;;;28.30;;
43803;SDS011;29430;52.924;-2.388;2024-03-07T12:30:53;61.90;;;28.23;;
43803;SDS011;29430;52.924;-2.388;2024-03-07T12:35:46;59.38;;;26.95;;
43803;SDS011;29430;52.924;-2.388;2024-03-07T12:40:41;58.95;;;26.77;;
43803;SDS011;29430;52.924;-2.388;2024-03-07T12:45:36;63.33;;;27.30;;
43803;SDS011;29430;52.924;-2.388;2024-03-07T12:50:29;68.40;;;28.05;;
43803;SDS011;29430;52.924;-2.388;2024-03-07T12:55:21;56.28;;;25.40;;
43803;SDS011;29430;52.924;-2.388;2024-03-07T13:00:13;60.70;;;26.10;;
43803;SDS011;29430;52.924;-2.388;2024-03-07T13:05:10;63.90;;;29.60;;
43803;SDS011;29430;52.924;-2.388;2024-03-07T13:10:09;57.72;;;26.88;;
43803;SDS011;29430;52.924;-2.388;2024-03-07T13:15:06;59.85;;;27.85;;
43803;SDS011;29430;52.924;-2.388;2024-03-07T13:20:02;56.35;;;25.38;;
43803;SDS011;29430;52.924;-2.388;2024-03-07T13:24:53;57.85;;;25.35;;
43803;SDS011;29430;52.924;-2.388;2024-03-07T13:29:45;60.65;;;26.02;;
43803;SDS011;29430;52.924;-2.388;2024-03-07T13:34:37;53.58;;;24.33;;
43803;SDS011;29430;52.924;-2.388;2024-03-07T13:39:28;60.08;;;26.27;;
43803;SDS011;29430;52.924;-2.388;2024-03-07T13:44:20;61.03;;;25.15;;
43803;SDS011;29430;52.924;-2.388;2024-03-07T13:49:14;55.85;;;24.02;;
43803;SDS011;29430;52.924;-2.388;2024-03-07T13:54:05;54.72;;;24.55;;
43803;SDS011;29430;52.924;-2.388;2024-03-07T13:59:30;58.60;;;25.80;;
43803;SDS011;29430;52.924;-2.388;2024-03-07T14:04:47;62.10;;;28.05;;
43803;SDS011;29430;52.924;-2.388;2024-03-07T14:20:43;62.70;;;27.63;;
43803;SDS011;29430;52.924;-2.388;2024-03-07T14:36:00;51.05;;;22.42;;
43803;SDS011;29430;52.924;-2.388;2024-03-07T14:40:57;56.40;;;24.58;;
43803;SDS011;29430;52.924;-2.388;2024-03-07T14:45:49;58.45;;;25.35;;
43803;SDS011;29430;52.924;-2.388;2024-03-07T14:50:41;59.53;;;26.10;;
43803;SDS011;29430;52.924;-2.388;2024-03-07T14:55:38;53.42;;;24.30;;
43803;SDS011;29430;52.924;-2.388;2024-03-07T15:00:31;59.88;;;25.25;;
43803;SDS011;29430;52.924;-2.388;2024-03-07T15:05:32;54.70;;;24.45;;
43803;SDS011;29430;52.924;-2.388;2024-03-07T15:10:36;46.38;;;23.52;;
43803;SDS011;29430;52.924;-2.388;2024-03-07T15:15:29;45.28;;;21.48;;
43803;SDS011;29430;52.924;-2.388;2024-03-07T15:20:24;53.90;;;23.70;;
43803;SDS011;29430;52.924;-2.388;2024-03-07T15:25:18;44.05;;;21.13;;
43803;SDS011;29430;52.924;-2.388;2024-03-07T15:30:17;42.75;;;21.00;;
43803;SDS011;29430;52.924;-2.388;2024-03-07T15:35:09;41.67;;;19.70;;
43803;SDS011;29430;52.924;-2.388;2024-03-07T15:40:08;38.40;;;18.67;;
43803;SDS011;29430;52.924;-2.388;2024-03-07T15:45:04;37.00;;;18.35;;
43803;SDS011;29430;52.924;-2.388;2024-03-07T15:50:03;29.42;;;15.85;;
43803;SDS011;29430;52.924;-2.388;2024-03-07T15:54:56;32.22;;;16.10;;
43803;SDS011;29430;52.924;-2.388;2024-03-07T15:59:48;30.60;;;15.18;;
43803;SDS011;29430;52.924;-2.388;2024-03-07T16:04:40;32.58;;;16.02;;
43803;SDS011;29430;52.924;-2.388;2024-03-07T16:09:33;30.20;;;16.13;;
43803;SDS011;29430;52.924;-2.388;2024-03-07T16:14:24;33.65;;;17.23;;
43803;SDS011;29430;52.924;-2.388;2024-03-07T16:19:16;30.73;;;14.95;;
43803;SDS011;29430;52.924;-2.388;2024-03-07T16:24:12;32.95;;;15.98;;
43803;SDS011;29430;52.924;-2.388;2024-03-07T16:29:04;36.28;;;17.35;;
43803;SDS011;29430;52.924;-2.388;2024-03-07T16:33:57;32.97;;;18.52;;
43803;SDS011;29430;52.924;-2.388;2024-03-07T16:38:50;36.22;;;17.00;;
43803;SDS011;29430;52.924;-2.388;2024-03-07T16:43:41;35.30;;;17.85;;
43803;SDS011;29430;52.924;-2.388;2024-03-07T16:48:33;38.25;;;18.10;;
43803;SDS011;29430;52.924;-2.388;2024-03-07T16:53:25;36.20;;;18.23;;
43803;SDS011;29430;52.924;-2.388;2024-03-07T16:58:17;35.80;;;18.67;;
43803;SDS011;29430;52.924;-2.388;2024-03-07T17:03:09;40.28;;;20.70;;
43803;SDS011;29430;52.924;-2.388;2024-03-07T17:08:02;42.22;;;20.50;;
43803;SDS011;29430;52.924;-2.388;2024-03-07T17:12:58;47.55;;;23.98;;
43803;SDS011;29430;52.924;-2.388;2024-03-07T17:17:51;40.58;;;22.80;;
43803;SDS011;29430;52.924;-2.388;2024-03-07T17:22:44;70.95;;;38.22;;
43803;SDS011;29430;52.924;-2.388;2024-03-07T17:27:36;59.30;;;30.55;;
43803;SDS011;29430;52.924;-2.388;2024-03-07T17:32:28;55.50;;;27.52;;
43803;SDS011;29430;52.924;-2.388;2024-03-07T17:37:23;48.45;;;26.38;;
43803;SDS011;29430;52.924;-2.388;2024-03-07T17:42:15;47.65;;;24.48;;
43803;SDS011;29430;52.924;-2.388;2024-03-07T17:47:07;48.40;;;23.80;;
43803;SDS011;29430;52.924;-2.388;2024-03-07T17:52:01;48.55;;;25.63;;
43803;SDS011;29430;52.924;-2.388;2024-03-07T17:56:53;43.53;;;22.77;;
43803;SDS011;29430;52.924;-2.388;2024-03-07T18:01:45;45.58;;;24.02;;
43803;SDS011;29430;52.924;-2.388;2024-03-07T18:06:37;39.80;;;21.85;;
43803;SDS011;29430;52.924;-2.388;2024-03-07T18:11:28;42.67;;;22.42;;
43803;SDS011;29430;52.924;-2.388;2024-03-07T18:16:22;44.00;;;23.75;;
43803;SDS011;29430;52.924;-2.388;2024-03-07T18:21:13;40.83;;;21.40;;
43803;SDS011;29430;52.924;-2.388;2024-03-07T18:26:05;42.97;;;22.60;;
43803;SDS011;29430;52.924;-2.388;2024-03-07T18:30:57;44.42;;;21.65;;
43803;SDS011;29430;52.924;-2.388;2024-03-07T18:35:54;44.42;;;22.83;;
43803;SDS011;29430;52.924;-2.388;2024-03-07T18:40:47;45.28;;;21.00;;
43803;SDS011;29430;52.924;-2.388;2024-03-07T18:45:40;39.08;;;20.45;;
43803;SDS011;29430;52.924;-2.388;2024-03-07T18:50:36;41.53;;;19.88;;
43803;SDS011;29430;52.924;-2.388;2024-03-07T18:55:38;46.00;;;23.48;;
43803;SDS011;29430;52.924;-2.388;2024-03-07T19:00:30;37.63;;;19.13;;
43803;SDS011;29430;52.924;-2.388;2024-03-07T19:05:23;43.10;;;23.80;;
43803;SDS011;29430;52.924;-2.388;2024-03-07T19:10:16;41.55;;;20.33;;
43803;SDS011;29430;52.924;-2.388;2024-03-07T19:15:09;42.72;;;21.35;;
43803;SDS011;29430;52.924;-2.388;2024-03-07T19:20:01;36.55;;;18.88;;
43803;SDS011;29430;52.924;-2.388;2024-03-07T19:25:08;34.05;;;18.27;;
43803;SDS011;29430;52.924;-2.388;2024-03-07T19:29:59;37.38;;;17.25;;
43803;SDS011;29430;52.924;-2.388;2024-03-07T19:34:53;35.85;;;17.83;;
43803;SDS011;29430;52.924;-2.388;2024-03-07T19:39:45;34.65;;;17.27;;
43803;SDS011;29430;52.924;-2.388;2024-03-07T19:44:40;33.28;;;16.80;;
43803;SDS011;29430;52.924;-2.388;2024-03-07T19:54:27;30.33;;;16.60;;
43803;SDS011;29430;52.924;-2.388;2024-03-07T19:59:19;31.00;;;16.80;;
43803;SDS011;29430;52.924;-2.388;2024-03-07T20:04:11;29.45;;;15.70;;
43803;SDS011;29430;52.924;-2.388;2024-03-07T20:09:05;27.50;;;15.60;;
43803;SDS011;29430;52.924;-2.388;2024-03-07T20:13:57;31.98;;;16.05;;
43803;SDS011;29430;52.924;-2.388;2024-03-07T20:18:50;31.45;;;15.02;;
43803;SDS011;29430;52.924;-2.388;2024-03-07T20:23:42;31.08;;;15.93;;
43803;SDS011;29430;52.924;-2.388;2024-03-07T20:28:34;26.30;;;13.88;;
43803;SDS011;29430;52.924;-2.388;2024-03-07T20:33:26;27.05;;;15.70;;
43803;SDS011;29430;52.924;-2.388;2024-03-07T20:38:19;31.75;;;16.58;;
43803;SDS011;29430;52.924;-2.388;2024-03-07T20:43:13;32.13;;;15.95;;
43803;SDS011;29430;52.924;-2.388;2024-03-07T20:48:06;31.35;;;16.20;;
43803;SDS011;29430;52.924;-2.388;2024-03-07T20:57:56;27.23;;;14.15;;
43803;SDS011;29430;52.924;-2.388;2024-03-07T21:02:50;28.35;;;15.65;;
43803;SDS011;29430;52.924;-2.388;2024-03-07T21:07:43;30.58;;;16.10;;
43803;SDS011;29430;52.924;-2.388;2024-03-07T21:12:37;28.58;;;15.38;;
43803;SDS011;29430;52.924;-2.388;2024-03-07T21:17:31;27.23;;;13.88;;
43803;SDS011;29430;52.924;-2.388;2024-03-07T21:22:23;28.00;;;14.20;;
43803;SDS011;29430;52.924;-2.388;2024-03-07T21:27:14;20.52;;;11.85;;
43803;SDS011;29430;52.924;-2.388;2024-03-07T21:32:06;24.85;;;13.25;;
43803;SDS011;29430;52.924;-2.388;2024-03-07T21:37:02;23.25;;;12.02;;
43803;SDS011;29430;52.924;-2.388;2024-03-07T21:41:56;25.77;;;12.77;;
43803;SDS011;29430;52.924;-2.388;2024-03-07T21:46:48;24.25;;;13.10;;
43803;SDS011;29430;52.924;-2.388;2024-03-07T21:51:40;24.38;;;12.48;;
43803;SDS011;29430;52.924;-2.388;2024-03-07T21:56:37;24.40;;;11.98;;
43803;SDS011;29430;52.924;-2.388;2024-03-07T22:01:36;27.08;;;13.55;;
43803;SDS011;29430;52.924;-2.388;2024-03-07T22:06:29;26.42;;;13.30;;
43803;SDS011;29430;52.924;-2.388;2024-03-07T22:11:20;22.63;;;12.02;;
43803;SDS011;29430;52.924;-2.388;2024-03-07T22:16:13;26.67;;;11.80;;
43803;SDS011;29430;52.924;-2.388;2024-03-07T22:21:06;23.90;;;11.50;;
43803;SDS011;29430;52.924;-2.388;2024-03-07T22:25:59;30.58;;;12.80;;
43803;SDS011;29430;52.924;-2.388;2024-03-07T22:30:52;25.33;;;13.07;;
43803;SDS011;29430;52.924;-2.388;2024-03-07T22:35:44;27.63;;;13.02;;
43803;SDS011;29430;52.924;-2.388;2024-03-07T22:40:36;26.30;;;12.23;;
43803;SDS011;29430;52.924;-2.388;2024-03-07T22:45:28;24.08;;;12.32;;
43803;SDS011;29430;52.924;-2.388;2024-03-07T22:50:21;27.10;;;12.52;;
43803;SDS011;29430;52.924;-2.388;2024-03-07T22:55:21;30.45;;;14.30;;
43803;SDS011;29430;52.924;-2.388;2024-03-07T23:00:14;24.70;;;11.95;;
43803;SDS011;29430;52.924;-2.388;2024-03-07T23:05:32;17.63;;;9.03;;
43803;SDS011;29430;52.924;-2.388;2024-03-07T23:10:23;25.58;;;12.90;;
43803;SDS011;29430;52.924;-2.388;2024-03-07T23:15:16;27.67;;;12.82;;
43803;SDS011;29430;52.924;-2.388;2024-03-07T23:20:08;28.00;;;14.32;;
43803;SDS011;29430;52.924;-2.388;2024-03-07T23:25:05;26.05;;;12.38;;
43803;SDS011;29430;52.924;-2.388;2024-03-07T23:29:57;23.42;;;13.63;;
43803;SDS011;29430;52.924;-2.388;2024-03-07T23:34:49;21.90;;;11.88;;
43803;SDS011;29430;52.924;-2.388;2024-03-07T23:39:41;21.75;;;11.80;;
43803;SDS011;29430;52.924;-2.388;2024-03-07T23:44:33;20.77;;;11.02;;
43803;SDS011;29430;52.924;-2.388;2024-03-07T23:49:25;24.38;;;10.75;;
43803;SDS011;29430;52.924;-2.388;2024-03-07T23:54:16;19.10;;;11.25;;
43803;SDS011;29430;52.924;-2.388;2024-03-07T23:59:11;23.70;;;11.70;;
